Time;durP1;ratioP1;P1;durP2;ratioP2;P2;SDS_P1;SDS_P2;PMS_P1;PMS_P2;Temp;Humidity;BMP_temperature;BMP_pressure;BME280_temperature;BME280_humidity;BME280_pressure;Samples;Min_cycle;Max_cycle;Signal;HPM_P1;HPM_P2
2023/09/17 00:00:36;;;;;;;4.20;3.80;;;;;;;14.61;100.00;93015.78;2106519;28;20481;-82
2023/09/17 00:01:49;;;;;;;4.55;3.50;;;;;;;14.58;100.00;93018.63;2097860;28;20023;-82
2023/09/17 00:02:57;;;;;;;3.95;3.65;;;;;;;14.42;100.00;93019.56;2099230;28;20024;-82
2023/09/17 00:04:23;;;;;;;4.85;3.65;;;;;;;14.52;100.00;93015.75;2098941;28;20111;-83
2023/09/17 00:05:42;;;;;;;4.93;4.43;;;;;;;14.54;100.00;93020.69;2113343;27;20044;-81
2023/09/17 00:07:16;;;;;;;5.30;4.20;;;;;;;14.56;100.00;93019.03;2114784;28;20023;-82
2023/09/17 00:08:54;;;;;;;4.28;3.80;;;;;;;14.53;100.00;93013.78;2094199;28;20408;-81
2023/09/17 00:10:27;;;;;;;3.85;3.47;;;;;;;14.61;100.00;93023.09;2091911;28;20028;-81
2023/09/17 00:12:05;;;;;;;4.30;3.92;;;;;;;14.59;100.00;93020.84;2098703;28;20403;-82
2023/09/17 00:13:41;;;;;;;3.75;3.33;;;;;;;14.66;100.00;93022.50;2114637;28;20463;-81
2023/09/17 00:14:57;;;;;;;4.72;4.32;;;;;;;14.58;100.00;93021.31;2096709;28;20040;-82
2023/09/17 00:16:31;;;;;;;5.15;3.90;;;;;;;14.53;100.00;93019.94;2104181;28;20406;-82
2023/09/17 00:17:46;;;;;;;3.33;3.03;;;;;;;14.57;100.00;93019.78;2102471;28;20090;-82
2023/09/17 00:18:55;;;;;;;4.03;3.72;;;;;;;14.45;100.00;93023.31;2100147;28;20024;-81
2023/09/17 00:20:10;;;;;;;3.55;3.25;;;;;;;14.42;100.00;93026.88;2090956;28;20044;-81
2023/09/17 00:21:20;;;;;;;3.97;3.58;;;;;;;14.45;100.00;93028.72;2099852;28;20082;-81
2023/09/17 00:22:30;;;;;;;3.50;3.20;;;;;;;14.32;100.00;93031.47;2101299;28;20464;-81
2023/09/17 00:23:39;;;;;;;4.45;3.30;;;;;;;14.30;100.00;93028.47;2106245;28;20051;-82
2023/09/17 00:24:47;;;;;;;4.00;3.70;;;;;;;14.18;100.00;93032.00;2091840;28;20506;-81
2023/09/17 00:26:05;;;;;;;3.45;3.15;;;;;;;14.17;100.00;93025.88;2091802;28;20063;-81
2023/09/17 00:27:13;;;;;;;5.15;3.90;;;;;;;14.21;100.00;93031.13;2094550;28;20036;-81
2023/09/17 00:28:21;;;;;;;4.60;4.20;;;;;;;14.07;100.00;93035.09;2092581;28;20448;-81
2023/09/17 00:29:30;;;;;;;4.30;3.70;;;;;;;14.10;100.00;93032.28;2107286;28;20485;-81
2023/09/17 00:30:38;;;;;;;6.53;3.60;;;;;;;14.16;100.00;93029.00;2098971;28;20424;-82
2023/09/17 00:31:48;;;;;;;5.63;4.97;;;;;;;13.95;100.00;93030.53;2100074;28;20047;-82
2023/09/17 00:32:57;;;;;;;5.28;4.03;;;;;;;14.00;100.00;93032.63;2098958;28;20098;-81
2023/09/17 00:34:05;;;;;;;3.92;3.45;;;;;;;13.99;100.00;93031.16;2101870;28;20050;-81
2023/09/17 00:35:16;;;;;;;4.75;4.10;;;;;;;13.94;100.00;93029.78;2094867;28;20062;-81
2023/09/17 00:36:32;;;;;;;6.88;5.07;;;;;;;13.85;100.00;93037.78;2100433;28;20358;-82
2023/09/17 00:37:41;;;;;;;4.97;4.30;;;;;;;13.89;100.00;93032.28;2101462;28;20029;-82
2023/09/17 00:38:50;;;;;;;5.03;4.10;;;;;;;13.89;100.00;93032.28;2106995;28;20028;-82
2023/09/17 00:40:00;;;;;;;4.80;3.88;;;;;;;13.92;100.00;93029.47;2098627;28;20129;-82
2023/09/17 00:41:10;;;;;;;4.60;4.18;;;;;;;13.91;100.00;93025.28;2097264;28;20398;-81
2023/09/17 00:42:19;;;;;;;5.30;4.13;;;;;;;13.86;100.00;93023.16;2090664;28;20029;-81
2023/09/17 00:43:30;;;;;;;4.50;4.10;;;;;;;13.89;100.00;93033.03;2099751;28;20029;-80
2023/09/17 00:44:40;;;;;;;5.00;4.50;;;;;;;13.91;100.00;93029.91;2098714;28;20053;-81
2023/09/17 00:45:46;;;;;;;;;;;;;;;13.91;100.00;93035.28;2092524;28;20025;-81
2023/09/17 00:46:59;;;;;;;4.50;4.10;;;;;;;13.91;100.00;93030.66;2090849;28;19920;-79
2023/09/17 00:48:10;;;;;;;5.75;4.43;;;;;;;13.94;100.00;93023.66;2107425;28;20476;-81
2023/09/17 00:49:18;;;;;;;5.07;4.68;;;;;;;13.92;100.00;93026.78;2106098;28;20024;-81
2023/09/17 00:50:31;;;;;;;4.88;4.28;;;;;;;13.92;100.00;93024.09;2098698;28;20021;-82
2023/09/17 00:51:40;;;;;;;6.50;5.38;;;;;;;13.88;100.00;93022.75;2099036;28;20048;-82
2023/09/17 00:52:50;;;;;;;6.78;5.90;;;;;;;13.83;100.00;93019.44;2094990;28;20581;-81
2023/09/17 00:54:01;;;;;;;5.90;5.32;;;;;;;13.80;100.00;93024.91;2099733;28;20051;-81
2023/09/17 00:55:12;;;;;;;6.32;5.75;;;;;;;13.74;100.00;93022.06;2092181;28;20410;-81
2023/09/17 00:56:20;;;;;;;;;;;;;;;13.73;100.00;93019.78;2098267;28;20101;-82
2023/09/17 00:57:30;;;;;;;18.02;11.70;;;;;;;13.57;100.00;93024.16;2105161;28;20334;-81
2023/09/17 00:58:41;;;;;;;13.95;9.43;;;;;;;13.52;100.00;93019.38;2102506;28;20935;-81
2023/09/17 00:59:52;;;;;;;14.20;11.30;;;;;;;13.53;100.00;93015.50;2107319;28;20020;-82
2023/09/17 01:01:04;;;;;;;12.52;10.23;;;;;;;13.55;100.00;93013.09;2107070;28;20020;-81
2023/09/17 01:02:14;;;;;;;11.70;8.50;;;;;;;13.56;100.00;93009.25;2099055;28;20115;-81
2023/09/17 01:03:23;;;;;;;7.25;5.35;;;;;;;13.52;100.00;93013.22;2099258;28;20027;-81
2023/09/17 01:04:34;;;;;;;14.13;7.68;;;;;;;13.53;100.00;93012.81;2114176;28;20051;-82
2023/09/17 01:05:51;;;;;;;7.65;6.40;;;;;;;13.51;100.00;93011.72;2098686;28;20085;-82
2023/09/17 01:07:01;;;;;;;7.57;6.22;;;;;;;13.60;100.00;93019.84;2102219;28;20478;-82
2023/09/17 01:08:15;;;;;;;9.63;6.13;;;;;;;13.59;100.00;93016.41;2106950;28;20384;-82
2023/09/17 01:09:18;;;;;;;8.15;5.65;;;;;;;13.48;100.00;93015.31;2105402;28;20040;-82
2023/09/17 01:10:19;;;;;;;6.28;4.97;;;;;;;13.52;100.00;93013.22;2097925;28;20097;-81
2023/09/17 01:11:20;;;;;;;7.22;5.20;;;;;;;13.52;100.00;93016.69;2088533;28;20028;-81
2023/09/17 01:12:21;;;;;;;8.18;5.15;;;;;;;13.51;100.00;93009.78;2090870;28;20036;-81
2023/09/17 01:13:23;;;;;;;8.02;5.18;;;;;;;13.53;100.00;93012.81;2087922;28;20040;-82
2023/09/17 01:14:24;;;;;;;5.65;4.20;;;;;;;13.51;100.00;93015.16;2102592;28;20107;-81
2023/09/17 01:15:27;;;;;;;7.22;5.90;;;;;;;13.38;100.00;93016.41;2097507;28;20039;-81
2023/09/17 01:16:28;;;;;;;6.70;4.85;;;;;;;13.31;100.00;93018.16;2097787;28;20131;-81
2023/09/17 01:17:30;;;;;;;5.68;4.55;;;;;;;13.39;100.00;93015.97;2097645;28;20029;-81
2023/09/17 01:18:53;;;;;;;4.85;3.95;;;;;;;13.39;100.00;93024.03;2090020;28;20799;-82
2023/09/17 01:19:55;;;;;;;5.05;3.80;;;;;;;13.23;100.00;93033.00;2095305;28;20114;-82
2023/09/17 01:21:00;;;;;;;3.67;3.28;;;;;;;13.21;100.00;93024.56;2105781;28;20053;-81
2023/09/17 01:22:20;;;;;;;3.60;3.25;;;;;;;13.30;100.00;93024.72;2089671;28;20476;-80
2023/09/17 01:23:41;;;;;;;3.83;3.30;;;;;;;13.44;100.00;93025.41;2095642;28;20048;-82
2023/09/17 01:24:48;;;;;;;3.63;2.60;;;;;;;13.46;100.00;93017.66;2099797;28;20045;-81
2023/09/17 01:25:57;;;;;;;3.85;3.03;;;;;;;13.40;100.00;93024.78;2087865;28;20044;-81
2023/09/17 01:27:05;;;;;;;3.35;3.05;;;;;;;13.43;100.00;93024.63;2091220;28;20029;-81
2023/09/17 01:28:07;;;;;;;4.18;3.47;;;;;;;13.32;100.00;93025.00;2099505;28;20118;-82
2023/09/17 01:29:08;;;;;;;3.83;3.42;;;;;;;13.27;100.00;93028.25;2097414;28;20047;-79
2023/09/17 01:30:15;;;;;;;5.22;3.50;;;;;;;13.25;100.00;93019.13;2088689;28;20102;-80
2023/09/17 01:31:20;;;;;;;3.75;3.40;;;;;;;13.21;100.00;93023.84;2090234;28;20087;-81
2023/09/17 01:32:21;;;;;;;4.68;2.78;;;;;;;13.18;100.00;93025.47;2089901;28;20036;-82
2023/09/17 01:33:22;;;;;;;3.35;3.03;;;;;;;13.15;100.00;93026.31;2089340;28;20437;-80
2023/09/17 01:34:23;;;;;;;3.80;3.30;;;;;;;13.07;100.00;93027.72;2097410;28;20450;-82
2023/09/17 01:35:35;;;;;;;3.30;3.00;;;;;;;13.16;100.00;93032.44;2105907;28;20125;-82
2023/09/17 01:36:39;;;;;;;3.35;2.95;;;;;;;13.08;100.00;93029.22;2115663;27;20369;-81
2023/09/17 01:37:47;;;;;;;3.72;2.88;;;;;;;13.16;100.00;93035.13;2102182;28;20718;-81
2023/09/17 01:38:54;;;;;;;3.97;3.17;;;;;;;13.10;100.00;93027.63;2082793;28;20032;-82
2023/09/17 01:39:58;;;;;;;3.67;2.85;;;;;;;13.17;100.00;93034.72;2098321;28;20020;-79
2023/09/17 01:41:07;;;;;;;5.95;2.67;;;;;;;13.11;100.00;93031.81;2100498;28;20097;-81
2023/09/17 01:42:10;;;;;;;2.65;2.42;;;;;;;13.10;100.00;93030.31;2090484;28;20021;-79
2023/09/17 01:43:11;;;;;;;2.78;2.58;;;;;;;13.12;100.00;93024.50;2097620;28;20420;-81
2023/09/17 01:44:14;;;;;;;2.95;2.75;;;;;;;13.15;100.00;93028.25;2097134;28;20059;-82
2023/09/17 01:45:18;;;;;;;3.40;3.10;;;;;;;13.06;100.00;93029.69;2093685;28;20020;-82
2023/09/17 01:46:20;;;;;;;3.28;2.90;;;;;;;13.14;100.00;93029.44;2111430;28;20069;-81
2023/09/17 01:47:22;;;;;;;3.53;3.08;;;;;;;13.11;100.00;93028.38;2098474;28;20025;-82
2023/09/17 01:48:24;;;;;;;3.78;3.40;;;;;;;13.16;100.00;93024.38;2097688;28;20021;-81
2023/09/17 01:49:30;;;;;;;6.43;3.25;;;;;;;13.18;100.00;93020.09;2101932;28;20043;-82
2023/09/17 01:50:34;;;;;;;3.83;2.85;;;;;;;13.16;100.00;93025.13;2106554;28;20023;-80
2023/09/17 01:51:37;;;;;;;3.83;2.95;;;;;;;13.24;100.00;93025.69;2105366;28;20020;-82
2023/09/17 01:52:40;;;;;;;3.30;2.80;;;;;;;13.17;100.00;93033.94;2092854;28;20025;-81
2023/09/17 01:53:41;;;;;;;4.55;2.50;;;;;;;13.22;100.00;93020.75;2097780;28;20013;-82
2023/09/17 01:54:43;;;;;;;3.42;2.72;;;;;;;13.24;100.00;93031.81;2099372;28;20024;-82
2023/09/17 01:55:44;;;;;;;4.03;2.72;;;;;;;13.11;100.00;93031.81;2096314;28;20354;-81
2023/09/17 01:56:47;;;;;;;3.35;2.63;;;;;;;13.04;100.00;93029.38;2081106;28;20029;-81
2023/09/17 01:57:48;;;;;;;4.20;2.45;;;;;;;13.07;100.00;93031.16;2089786;28;20418;-82
2023/09/17 01:58:49;;;;;;;3.55;2.38;;;;;;;13.09;100.00;93034.19;2089302;28;20730;-81
2023/09/17 01:59:50;;;;;;;2.78;2.22;;;;;;;13.09;100.00;93033.44;2097556;28;20029;-82
2023/09/17 02:00:52;;;;;;;3.70;2.15;;;;;;;13.06;100.00;93035.03;2097313;28;20516;-80
2023/09/17 02:01:54;;;;;;;4.45;2.25;;;;;;;13.08;100.00;93042.66;2089484;28;20024;-80
2023/09/17 02:02:55;;;;;;;3.95;2.60;;;;;;;13.06;100.00;93039.66;2097446;28;20078;-82
2023/09/17 02:03:57;;;;;;;2.63;2.13;;;;;;;13.03;100.00;93038.59;2097248;28;20028;-81
2023/09/17 02:04:58;;;;;;;4.20;2.28;;;;;;;13.03;100.00;93045.88;2097859;28;20035;-82
2023/09/17 02:06:01;;;;;;;2.63;2.38;;;;;;;13.09;100.00;93047.59;2097481;28;20025;-82
2023/09/17 02:07:03;;;;;;;2.33;2.13;;;;;;;13.15;100.00;93041.69;2089534;28;20061;-82
2023/09/17 02:08:06;;;;;;;2.95;2.25;;;;;;;13.02;100.00;93047.06;2095795;28;20025;-82
2023/09/17 02:09:11;;;;;;;2.20;2.10;;;;;;;13.16;100.00;93043.16;2097633;28;20024;-82
2023/09/17 02:10:13;;;;;;;6.22;2.38;;;;;;;13.27;100.00;93046.28;2098082;28;20103;-82
2023/09/17 02:11:14;;;;;;;2.78;2.30;;;;;;;13.32;100.00;93038.44;2093390;28;20457;-81
2023/09/17 02:12:15;;;;;;;2.50;2.10;;;;;;;13.27;100.00;93040.94;2088943;28;20028;-82
2023/09/17 02:13:16;;;;;;;2.17;1.98;;;;;;;13.15;100.00;93044.38;2097050;28;20394;-80
2023/09/17 02:14:18;;;;;;;2.50;2.30;;;;;;;13.20;100.00;93052.59;2105177;28;20024;-82
2023/09/17 02:15:20;;;;;;;2.67;1.92;;;;;;;13.27;100.00;93048.97;2105494;28;20034;-82
2023/09/17 02:16:21;;;;;;;2.33;2.13;;;;;;;13.35;100.00;93042.19;2097281;28;20214;-82
2023/09/17 02:17:22;;;;;;;3.70;2.20;;;;;;;13.37;100.00;93039.06;2097667;28;20110;-80
2023/09/17 02:18:23;;;;;;;3.47;1.95;;;;;;;13.31;100.00;93049.63;2114094;28;20023;-82
2023/09/17 02:19:25;;;;;;;2.65;2.15;;;;;;;13.33;100.00;93041.88;2109352;28;20034;-81
2023/09/17 02:20:26;;;;;;;3.70;2.17;;;;;;;13.29;100.00;93041.97;2097292;28;20058;-81
2023/09/17 02:23:09;;;;;;;2.85;1.95;;;;;;;13.04;100.00;93044.72;2138966;27;20248;-83
2023/09/17 02:24:10;;;;;;;2.42;2.15;;;;;;;13.09;100.00;93041.50;2121259;28;20095;-81
2023/09/17 02:25:12;;;;;;;3.85;2.00;;;;;;;13.01;100.00;93037.53;2104408;28;20020;-82
2023/09/17 02:26:13;;;;;;;2.20;2.10;;;;;;;13.06;100.00;93045.78;2104463;28;20440;-82
2023/09/17 02:27:14;;;;;;;2.65;1.98;;;;;;;13.09;100.00;93036.88;2112666;28;20031;-81
2023/09/17 02:28:16;;;;;;;3.33;2.20;;;;;;;13.08;100.00;93038.06;2105649;27;20036;-82
2023/09/17 02:29:17;;;;;;;5.43;2.40;;;;;;;13.03;100.00;93035.16;2112778;28;20020;-81
2023/09/17 02:30:18;;;;;;;2.42;1.98;;;;;;;13.07;100.00;93041.16;2104361;28;20505;-82
2023/09/17 02:31:20;;;;;;;2.33;2.13;;;;;;;13.14;100.00;93040.94;2098611;28;20039;-81
2023/09/17 02:32:22;;;;;;;4.07;2.17;;;;;;;13.27;100.00;93041.69;2096352;28;20021;-81
2023/09/17 02:33:23;;;;;;;2.47;1.90;;;;;;;13.31;100.00;93042.31;2104746;28;20028;-83
2023/09/17 02:34:24;;;;;;;4.05;2.20;;;;;;;13.44;100.00;93036.16;2108329;27;20019;-82
2023/09/17 02:35:26;;;;;;;2.25;2.05;;;;;;;13.40;100.00;93041.63;2121344;27;20053;-82
2023/09/17 02:36:28;;;;;;;2.53;2.22;;;;;;;13.38;100.00;93041.31;2112532;28;20023;-83
2023/09/17 02:37:29;;;;;;;2.28;2.08;;;;;;;13.38;100.00;93035.94;2104197;28;20031;-81
2023/09/17 02:38:30;;;;;;;1.92;1.83;;;;;;;13.33;100.00;93042.63;2104387;28;20044;-81
2023/09/17 02:39:31;;;;;;;2.90;2.00;;;;;;;13.28;100.00;93047.78;2112761;28;20042;-82
2023/09/17 02:40:32;;;;;;;2.55;2.10;;;;;;;13.25;100.00;93043.28;2112764;28;20023;-81
2023/09/17 02:41:33;;;;;;;2.25;2.05;;;;;;;13.15;100.00;93045.13;2120209;28;20364;-81
2023/09/17 02:42:34;;;;;;;2.55;1.90;;;;;;;13.20;100.00;93041.13;2106255;28;20028;-81
2023/09/17 02:43:36;;;;;;;3.08;2.00;;;;;;;13.10;100.00;93045.66;2104638;28;20020;-81
2023/09/17 02:44:37;;;;;;;3.05;2.20;;;;;;;13.23;100.00;93043.72;2109735;28;20065;-82
2023/09/17 02:45:38;;;;;;;2.03;1.83;;;;;;;13.22;100.00;93039.56;2104138;28;20052;-81
2023/09/17 02:46:40;;;;;;;2.25;2.03;;;;;;;13.23;100.00;93042.97;2112036;28;20450;-81
2023/09/17 02:47:41;;;;;;;3.95;1.88;;;;;;;13.26;100.00;93045.56;2112756;28;20119;-82
2023/09/17 02:48:42;;;;;;;1.88;1.77;;;;;;;13.25;100.00;93045.97;2112854;28;20028;-81
2023/09/17 02:49:42;;;;;;;3.35;2.00;;;;;;;13.30;100.00;93040.81;2112630;28;20024;-82
2023/09/17 02:50:44;;;;;;;3.13;2.28;;;;;;;13.24;100.00;93044.47;2112832;28;20031;-81
2023/09/17 02:51:45;;;;;;;2.08;1.88;;;;;;;13.28;100.00;93034.38;2120969;27;20368;-82
2023/09/17 02:52:46;;;;;;;3.70;2.00;;;;;;;13.40;100.00;93044.31;2117572;28;20429;-83
2023/09/17 02:53:48;;;;;;;3.40;2.20;;;;;;;13.48;100.00;93034.09;2104129;28;20372;-82
2023/09/17 02:54:49;;;;;;;2.67;1.83;;;;;;;13.35;100.00;93037.56;2104110;28;20024;-81
2023/09/17 02:55:52;;;;;;;3.63;2.10;;;;;;;13.43;100.00;93037.31;2105526;28;20120;-83
2023/09/17 02:56:54;;;;;;;4.10;2.35;;;;;;;13.39;100.00;93034.78;2116596;28;20625;-81
2023/09/17 02:57:55;;;;;;;2.40;2.15;;;;;;;13.37;100.00;93031.00;2111950;28;20028;-82
2023/09/17 02:58:58;;;;;;;2.20;2.00;;;;;;;13.43;100.00;93024.63;2104351;28;20027;-81
2023/09/17 02:59:59;;;;;;;2.40;2.20;;;;;;;13.39;100.00;93025.94;2104645;28;20024;-81
2023/09/17 03:01:04;;;;;;;2.92;2.30;;;;;;;13.32;100.00;93033.06;2121148;27;20023;-82
2023/09/17 03:02:05;;;;;;;2.08;1.98;;;;;;;13.30;100.00;93035.44;2105887;28;20128;-82
2023/09/17 03:03:06;;;;;;;2.60;1.73;;;;;;;13.37;100.00;93023.72;2095984;28;20024;-83
2023/09/17 03:04:07;;;;;;;2.00;1.80;;;;;;;13.32;100.00;93030.38;2105353;28;20032;-81
2023/09/17 03:05:10;;;;;;;2.22;2.00;;;;;;;13.24;100.00;93023.00;2112650;28;20019;-82
2023/09/17 03:06:11;;;;;;;2.20;2.00;;;;;;;13.33;100.00;93026.50;2104120;28;20020;-82
2023/09/17 03:07:14;;;;;;;4.75;1.90;;;;;;;13.39;100.00;93032.09;2095941;28;20028;-82
2023/09/17 03:08:15;;;;;;;3.33;2.20;;;;;;;13.38;100.00;93033.25;2096759;28;20112;-82
2023/09/17 03:09:18;;;;;;;3.17;2.20;;;;;;;13.54;100.00;93029.66;2101778;28;20027;-82
2023/09/17 03:10:20;;;;;;;2.65;1.98;;;;;;;13.62;100.00;93028.22;2104566;28;20020;-82
2023/09/17 03:11:26;;;;;;;2.75;2.47;;;;;;;13.58;100.00;93030.28;2104966;28;20020;-82
2023/09/17 03:12:27;;;;;;;2.75;1.83;;;;;;;13.53;100.00;93023.53;2111427;27;20848;-81
2023/09/17 03:13:28;;;;;;;2.33;2.13;;;;;;;13.54;100.00;93027.72;2112664;28;20055;-82
2023/09/17 03:14:29;;;;;;;2.70;2.10;;;;;;;13.50;100.00;93026.34;2112492;27;20436;-81
2023/09/17 03:15:30;;;;;;;2.65;2.03;;;;;;;13.53;100.00;93028.16;2112725;28;20123;-82
2023/09/17 03:16:37;;;;;;;2.20;1.70;;;;;;;13.56;100.00;93022.69;2105106;28;20031;-82
2023/09/17 03:17:38;;;;;;;2.22;2.03;;;;;;;13.41;100.00;93024.34;2098565;28;20460;-81
2023/09/17 03:18:39;;;;;;;2.30;2.00;;;;;;;13.50;100.00;93020.97;2095774;28;20031;-82
2023/09/17 03:19:42;;;;;;;2.05;1.70;;;;;;;13.50;100.00;93024.41;2101032;28;20070;-82
2023/09/17 03:20:44;;;;;;;2.08;1.98;;;;;;;13.39;100.00;93018.66;2096245;28;20630;-82
2023/09/17 03:21:45;;;;;;;3.42;1.95;;;;;;;13.44;100.00;93022.72;2112687;28;20031;-82
2023/09/17 03:22:48;;;;;;;3.22;1.95;;;;;;;13.43;100.00;93018.53;2120496;28;20134;-81
2023/09/17 03:23:50;;;;;;;2.22;1.88;;;;;;;13.47;100.00;93011.84;2111818;28;20046;-81
2023/09/17 03:24:51;;;;;;;1.83;1.70;;;;;;;13.36;100.00;93014.16;2094178;28;20021;-82
2023/09/17 03:25:52;;;;;;;2.95;2.15;;;;;;;13.47;100.00;93019.91;2095588;28;20074;-81
2023/09/17 03:26:55;;;;;;;2.25;1.75;;;;;;;13.52;100.00;93011.31;2104392;28;20111;-82
2023/09/17 03:27:56;;;;;;;1.95;1.80;;;;;;;13.44;100.00;93022.72;2112314;28;20024;-83
2023/09/17 03:28:57;;;;;;;3.47;2.17;;;;;;;13.44;100.00;93015.41;2103987;28;20026;-81
2023/09/17 03:29:58;;;;;;;2.00;1.80;;;;;;;13.46;100.00;93012.28;2097120;28;20020;-81
2023/09/17 03:31:00;;;;;;;3.35;1.77;;;;;;;13.46;100.00;93010.34;2106654;28;20114;-81
2023/09/17 03:32:01;;;;;;;2.70;2.13;;;;;;;13.39;100.00;93018.66;2104058;28;20133;-82
2023/09/17 03:33:03;;;;;;;3.03;1.90;;;;;;;13.48;100.00;93009.94;2104219;28;20074;-81
2023/09/17 03:34:05;;;;;;;2.42;1.85;;;;;;;13.48;100.00;93016.06;2109339;28;20028;-81
2023/09/17 03:35:07;;;;;;;2.28;2.00;;;;;;;13.45;100.00;93018.84;2106614;28;20490;-80
2023/09/17 03:36:08;;;;;;;3.78;2.00;;;;;;;13.39;100.00;93024.03;2098374;28;20023;-80
2023/09/17 03:37:09;;;;;;;2.00;1.85;;;;;;;13.33;100.00;93018.44;2106807;28;20028;-80
2023/09/17 03:38:10;;;;;;;3.33;1.85;;;;;;;13.40;100.00;93022.84;2105327;28;20051;-81
2023/09/17 03:39:10;;;;;;;2.28;2.05;;;;;;;13.43;100.00;93011.22;2105056;28;20023;-81
2023/09/17 03:40:14;;;;;;;2.10;1.90;;;;;;;13.35;100.00;93020.72;2090101;28;20055;-82
2023/09/17 03:41:15;;;;;;;4.18;2.08;;;;;;;13.37;100.00;93012.97;2095609;28;20031;-81
2023/09/17 03:42:16;;;;;;;1.95;1.80;;;;;;;13.42;100.00;93020.47;2098095;28;20477;-80
2023/09/17 03:43:23;;;;;;;5.00;2.17;;;;;;;13.28;100.00;93019.00;2090271;28;20017;-81
2023/09/17 03:44:24;;;;;;;2.15;1.98;;;;;;;13.37;100.00;93029.06;2102251;28;20112;-81
2023/09/17 03:45:25;;;;;;;3.50;1.98;;;;;;;13.19;100.00;93034.25;2106644;28;20499;-81
2023/09/17 03:46:26;;;;;;;1.85;1.75;;;;;;;13.11;100.00;93028.38;2098394;28;20037;-82
2023/09/17 03:47:28;;;;;;;2.17;2.00;;;;;;;13.11;100.00;93026.44;2090932;28;20375;-81
2023/09/17 03:48:31;;;;;;;5.75;2.55;;;;;;;13.02;100.00;93028.28;2090423;28;20119;-81
2023/09/17 03:49:33;;;;;;;3.38;2.00;;;;;;;13.09;100.00;93031.50;2098346;28;20409;-82
2023/09/17 03:50:39;;;;;;;3.40;2.45;;;;;;;13.03;100.00;93025.16;2090265;28;20156;-81
2023/09/17 03:51:40;;;;;;;2.70;2.20;;;;;;;13.11;100.00;93025.69;2083069;28;20179;-81
2023/09/17 03:52:46;;;;;;;3.03;2.35;;;;;;;13.03;100.00;93027.09;2093066;28;20385;-82
2023/09/17 03:53:50;;;;;;;3.28;1.90;;;;;;;13.14;100.00;93021.41;2090886;28;20024;-82
2023/09/17 03:54:52;;;;;;;3.47;2.15;;;;;;;13.06;100.00;93024.31;2089058;28;20024;-82
2023/09/17 03:55:54;;;;;;;2.63;2.22;;;;;;;13.04;100.00;93026.69;2083899;28;20083;-82
2023/09/17 03:56:55;;;;;;;2.70;2.50;;;;;;;13.03;100.00;93019.06;2090371;28;20035;-81
2023/09/17 03:57:57;;;;;;;3.25;2.25;;;;;;;13.01;100.00;93018.75;2098145;28;20024;-82
2023/09/17 03:58:58;;;;;;;2.47;2.28;;;;;;;12.99;100.00;93013.78;2105208;28;20016;-82
2023/09/17 04:00:06;;;;;;;2.45;2.22;;;;;;;13.04;100.00;93025.94;2089935;28;20041;-82
2023/09/17 04:01:08;;;;;;;2.50;2.30;;;;;;;12.96;100.00;93028.09;2091671;28;20032;-81
2023/09/17 04:02:09;;;;;;;2.70;2.35;;;;;;;12.82;100.00;93023.94;2097141;28;20016;-82
2023/09/17 04:03:12;;;;;;;2.47;2.08;;;;;;;12.91;100.00;93025.22;2097864;28;20027;-81
2023/09/17 04:04:13;;;;;;;2.60;2.40;;;;;;;12.84;100.00;93034.22;2090304;28;20017;-82
2023/09/17 04:05:16;;;;;;;3.15;2.47;;;;;;;12.87;100.00;93029.94;2081549;28;20451;-82
2023/09/17 04:06:18;;;;;;;4.15;2.50;;;;;;;12.78;100.00;93031.34;2082297;28;20036;-82
2023/09/17 04:07:19;;;;;;;2.55;2.03;;;;;;;12.81;100.00;93035.81;2090209;28;20017;-81
2023/09/17 04:08:21;;;;;;;3.38;2.40;;;;;;;12.78;100.00;93038.66;2089846;28;20029;-80
2023/09/17 04:09:22;;;;;;;3.22;2.33;;;;;;;12.84;100.00;93032.28;2089867;28;20464;-82
2023/09/17 04:10:24;;;;;;;2.53;2.33;;;;;;;12.86;100.00;93034.53;2089836;28;20021;-81
2023/09/17 04:11:28;;;;;;;3.85;2.80;;;;;;;12.82;100.00;93034.66;2089919;28;20501;-81
2023/09/17 04:12:29;;;;;;;6.28;2.72;;;;;;;12.88;100.00;93034.13;2091497;28;20056;-82
2023/09/17 04:13:30;;;;;;;3.75;3.33;;;;;;;12.91;100.00;93038.63;2089693;28;20025;-81
2023/09/17 04:14:31;;;;;;;3.15;2.85;;;;;;;12.89;100.00;93038.28;2094315;28;20381;-80
2023/09/17 04:15:32;;;;;;;3.40;2.45;;;;;;;12.93;100.00;93037.00;2106507;28;20024;-81
2023/09/17 04:16:33;;;;;;;7.57;2.38;;;;;;;13.01;100.00;93038.28;2106356;28;20121;-82
2023/09/17 04:17:35;;;;;;;2.78;2.58;;;;;;;12.92;100.00;93040.13;2097833;28;20772;-81
2023/09/17 04:18:36;;;;;;;2.70;2.50;;;;;;;13.10;100.00;93037.63;2097810;28;20369;-83
2023/09/17 04:19:37;;;;;;;4.13;2.40;;;;;;;13.04;100.00;93042.78;2095004;28;20035;-81
2023/09/17 04:20:38;;;;;;;2.50;2.30;;;;;;;13.02;100.00;93034.41;2090017;28;20484;-81
2023/09/17 04:21:39;;;;;;;3.35;2.30;;;;;;;12.97;100.00;93044.94;2081588;28;20474;-81
2023/09/17 04:22:42;;;;;;;2.83;2.40;;;;;;;12.92;100.00;93040.88;2084217;28;20513;-82
2023/09/17 04:23:44;;;;;;;3.58;2.33;;;;;;;12.92;100.00;93037.44;2090483;28;20112;-82
2023/09/17 04:24:45;;;;;;;2.97;2.30;;;;;;;12.85;100.00;93035.72;2089866;28;20025;-82
2023/09/17 04:26:15;;;;;;;2.75;2.45;;;;;;;12.95;100.00;93033.88;2082446;28;20017;-82
2023/09/17 04:27:17;;;;;;;;;;;;;;;12.95;100.00;93045.38;2098761;28;20021;-80
2023/09/17 04:28:19;;;;;;;2.88;2.20;;;;;;;13.01;100.00;93042.91;2098112;28;19920;-82
2023/09/17 04:29:20;;;;;;;3.08;2.35;;;;;;;13.05;100.00;93040.84;2098225;28;20133;-81
2023/09/17 04:30:22;;;;;;;3.42;2.38;;;;;;;12.96;100.00;93051.50;2090113;28;20033;-81
2023/09/17 04:31:23;;;;;;;3.90;2.22;;;;;;;13.00;100.00;93042.16;2091066;28;20059;-82
2023/09/17 04:32:24;;;;;;;3.70;2.25;;;;;;;13.06;100.00;93043.09;2098170;28;20021;-82
2023/09/17 04:33:26;;;;;;;2.80;2.50;;;;;;;12.99;100.00;93045.25;2097832;28;20020;-82
2023/09/17 04:34:28;;;;;;;4.43;2.15;;;;;;;13.04;100.00;93045.47;2098304;28;20035;-81
2023/09/17 04:35:30;;;;;;;3.05;2.78;;;;;;;13.26;100.00;93050.16;2098015;28;20046;-82
2023/09/17 04:36:31;;;;;;;2.72;2.42;;;;;;;13.20;100.00;93043.81;2087678;28;20466;-81
2023/09/17 04:37:36;;;;;;;4.90;2.80;;;;;;;13.14;100.00;93045.56;2098033;28;20016;-82
2023/09/17 04:38:38;;;;;;;2.53;2.33;;;;;;;13.21;100.00;93035.31;2098669;28;20024;-82
2023/09/17 04:39:39;;;;;;;2.58;2.38;;;;;;;13.12;100.00;93040.59;2093918;28;20430;-82
2023/09/17 04:40:40;;;;;;;3.42;2.60;;;;;;;13.31;100.00;93039.63;2089682;28;20075;-82
2023/09/17 04:41:43;;;;;;;5.13;2.60;;;;;;;13.29;100.00;93046.59;2089122;28;20021;-82
2023/09/17 04:42:48;;;;;;;3.58;2.53;;;;;;;13.19;100.00;93045.00;2104025;28;20476;-83
2023/09/17 04:43:49;;;;;;;2.30;2.10;;;;;;;13.19;100.00;93040.38;2098312;28;20020;-81
2023/09/17 04:44:50;;;;;;;3.05;2.85;;;;;;;13.08;100.00;93043.41;2103482;28;20020;-82
2023/09/17 04:45:51;;;;;;;4.45;2.38;;;;;;;13.17;100.00;93042.75;2105440;28;20046;-82
2023/09/17 04:46:53;;;;;;;4.35;2.47;;;;;;;13.19;100.00;93048.44;2097754;28;20016;-81
2023/09/17 04:47:54;;;;;;;3.33;2.42;;;;;;;13.19;100.00;93048.44;2092804;28;20443;-82
2023/09/17 04:48:55;;;;;;;4.15;2.50;;;;;;;13.20;100.00;93049.94;2097804;28;20084;-83
2023/09/17 04:49:56;;;;;;;2.85;2.60;;;;;;;13.14;100.00;93045.56;2095997;28;20017;-82
2023/09/17 04:50:57;;;;;;;2.45;2.25;;;;;;;13.25;100.00;93057.44;2106861;28;20533;-82
2023/09/17 04:51:58;;;;;;;2.90;2.50;;;;;;;13.26;100.00;93058.22;2114549;28;20031;-82
2023/09/17 04:53:00;;;;;;;3.67;2.70;;;;;;;13.23;100.00;93056.41;2097557;28;20020;-81
2023/09/17 04:54:02;;;;;;;2.97;2.78;;;;;;;13.22;100.00;93058.34;2089918;28;20036;-80
2023/09/17 04:55:05;;;;;;;3.72;2.35;;;;;;;13.17;100.00;93061.53;2096906;28;20488;-82
2023/09/17 04:56:06;;;;;;;3.22;2.38;;;;;;;13.25;100.00;93056.69;2097955;28;20051;-82
2023/09/17 04:57:07;;;;;;;4.75;3.00;;;;;;;13.29;100.00;93060.03;2106274;28;20024;-82
2023/09/17 04:58:08;;;;;;;3.13;2.83;;;;;;;13.21;100.00;93058.72;2105960;28;20044;-81
2023/09/17 04:59:09;;;;;;;5.05;2.45;;;;;;;13.23;100.00;93056.41;2106502;28;20028;-80
2023/09/17 05:00:11;;;;;;;3.58;2.75;;;;;;;13.19;100.00;93058.41;2097759;28;20519;-81
2023/09/17 05:01:12;;;;;;;3.45;2.60;;;;;;;13.12;100.00;93056.69;2089772;28;20108;-81
2023/09/17 05:02:15;;;;;;;3.60;2.70;;;;;;;13.07;100.00;93062.63;2089651;28;20040;-82
2023/09/17 05:03:16;;;;;;;2.92;2.25;;;;;;;13.18;100.00;93073.03;2087855;28;20032;-82